Terminal Aerodrome Forecast
Issued by NWS

Home | Current Version | Previous Version | Text Only | Print | Product List | Glossary On
Versions: 1 2 3 4 5 6 7 8 9 10 11 12 13 14 15 16 17 18 19 20
000
FTUS44 KLZK 181200 AAA
TAFHOT
TAF AMD
KHOT 181239Z 1813/1912 12003KT P6SM OVC009
      TEMPO 1813/1815 5SM BR OVC005
     FM181500 09005KT P6SM VCSH BKN020 BKN050
     FM181900 10006KT P6SM VCTS SCT030CB BKN060
     FM190100 VRB03KT P6SM VCSH BKN040
     FM190300 VRB03KT P6SM VCSH BKN040 PROB30 1903/1908 4SM -TSRA BR
      OVC020CB=

USA.gov is the U.S. government's official web portal to all federal, state and local government web resources and services.